Time;durP1;ratioP1;P1;durP2;ratioP2;P2;SDS_P1;SDS_P2;PMS_P1;PMS_P2;Temp;Humidity;BMP_temperature;BMP_pressure;BME280_temperature;BME280_humidity;BME280_pressure;Samples;Min_cycle;Max_cycle;Signal;HPM_P1;HPM_P2
2023/07/11 00:02:15;;;;;;;18.48;5.85;;;24.60;99.90;;;;;;4997268;28;20048;-70
2023/07/11 00:04:41;;;;;;;29.98;6.53;;;24.50;99.90;;;;;;4997046;28;20019;-70
2023/07/11 00:07:07;;;;;;;16.90;5.30;;;24.40;99.90;;;;;;4997143;28;20501;-70
2023/07/11 00:09:33;;;;;;;20.42;6.25;;;24.40;99.90;;;;;;4996953;28;20030;-70
2023/07/11 00:11:58;;;;;;;16.50;5.88;;;24.40;99.90;;;;;;4996690;28;20122;-70
2023/07/11 00:14:24;;;;;;;13.80;5.55;;;24.40;99.90;;;;;;4997055;28;20448;-70
2023/07/11 00:16:50;;;;;;;24.88;6.40;;;24.30;99.90;;;;;;4996957;28;20064;-70
2023/07/11 00:19:19;;;;;;;16.15;5.50;;;24.30;99.90;;;;;;4996880;28;20097;-70
2023/07/11 00:21:46;;;;;;;22.85;7.03;;;24.20;99.90;;;;;;5028211;28;20046;-70
2023/07/11 00:24:12;;;;;;;19.30;5.75;;;24.20;99.90;;;;;;4996911;28;20095;-70
2023/07/11 00:26:38;;;;;;;17.10;6.38;;;24.20;99.90;;;;;;4996453;28;20506;-70
2023/07/11 00:29:14;;;;;;;18.77;6.38;;;24.20;99.90;;;;;;5028480;28;20119;-70
2023/07/11 00:31:40;;;;;;;18.38;6.22;;;24.10;99.90;;;;;;5028050;28;20121;-70
2023/07/11 00:34:05;;;;;;;21.67;5.30;;;24.10;99.90;;;;;;4996826;28;20046;-70
2023/07/11 00:36:31;;;;;;;17.27;5.70;;;24.10;99.90;;;;;;4996603;28;20066;-70
2023/07/11 00:38:57;;;;;;;20.33;7.10;;;24.10;99.90;;;;;;4996799;28;20033;-70
2023/07/11 00:41:22;;;;;;;20.75;5.55;;;24.10;99.90;;;;;;4996182;28;20030;-70
2023/07/11 00:43:48;;;;;;;21.50;6.22;;;24.10;99.90;;;;;;4996717;28;20026;-70
2023/07/11 00:46:16;;;;;;;12.50;6.10;;;24.00;99.90;;;;;;4996412;28;20030;-70
2023/07/11 00:48:48;;;;;;;20.67;6.53;;;24.00;99.90;;;;;;4996644;28;20046;-71
2023/07/11 00:51:18;;;;;;;18.50;5.75;;;24.00;99.90;;;;;;4996534;28;20036;-70
2023/07/11 00:53:44;;;;;;;24.33;7.53;;;23.90;99.90;;;;;;4995487;28;20030;-71
2023/07/11 00:56:14;;;;;;;20.15;6.97;;;23.90;99.90;;;;;;4995983;28;20089;-70
2023/07/11 00:58:41;;;;;;;20.77;6.13;;;23.90;99.90;;;;;;4992444;28;20525;-70
2023/07/11 01:01:08;;;;;;;18.27;7.53;;;23.90;99.90;;;;;;4998299;28;20018;-71
2023/07/11 01:03:34;;;;;;;14.27;5.40;;;23.90;99.90;;;;;;5000484;28;20018;-70
2023/07/11 01:06:00;;;;;;;16.17;5.40;;;23.90;99.90;;;;;;5000392;28;20033;-71
2023/07/11 01:08:26;;;;;;;11.77;5.65;;;23.70;99.90;;;;;;5032056;28;20022;-71
2023/07/11 01:10:52;;;;;;;23.65;6.05;;;23.70;99.90;;;;;;4999916;28;20030;-71
2023/07/11 01:13:17;;;;;;;23.63;6.40;;;23.70;99.90;;;;;;5000226;28;20022;-70
2023/07/11 01:15:43;;;;;;;19.98;6.18;;;23.60;99.90;;;;;;5000181;28;20566;-70
2023/07/11 01:18:09;;;;;;;18.42;6.18;;;23.70;99.90;;;;;;5000168;28;20406;-70
2023/07/11 01:20:35;;;;;;;17.35;5.80;;;23.60;99.90;;;;;;5000075;28;20038;-70
2023/07/11 01:23:00;;;;;;;17.67;5.75;;;23.50;99.90;;;;;;4998847;28;20033;-70
2023/07/11 01:25:26;;;;;;;18.00;6.15;;;23.40;99.90;;;;;;4999687;28;20093;-70
2023/07/11 01:27:52;;;;;;;17.30;6.05;;;23.50;99.90;;;;;;5000125;28;20107;-70
2023/07/11 01:30:22;;;;;;;17.17;5.57;;;23.40;99.90;;;;;;4999952;28;20030;-71
2023/07/11 01:32:48;;;;;;;;;;;23.40;99.90;;;;;;5000695;28;20050;-71
2023/07/11 01:35:14;;;;;;;20.85;6.18;;;23.40;99.90;;;;;;4999956;28;19913;-70
2023/07/11 01:37:40;;;;;;;14.38;5.28;;;23.30;99.90;;;;;;4999867;28;20406;-70
2023/07/11 01:40:07;;;;;;;20.05;7.32;;;23.30;99.90;;;;;;4999602;28;20032;-70
2023/07/11 01:42:35;;;;;;;15.80;6.30;;;23.20;99.90;;;;;;4999607;28;20023;-70
2023/07/11 01:45:00;;;;;;;16.52;6.55;;;23.20;99.90;;;;;;4999752;28;20173;-70
2023/07/11 01:47:26;;;;;;;17.88;5.68;;;23.10;99.90;;;;;;4999742;28;20058;-70
2023/07/11 01:49:52;;;;;;;17.17;5.90;;;23.10;99.90;;;;;;4999813;28;20438;-70
2023/07/11 01:52:22;;;;;;;17.70;5.70;;;23.10;99.90;;;;;;4999662;28;20030;-70
2023/07/11 01:54:49;;;;;;;19.60;7.90;;;23.00;99.90;;;;;;4999581;28;20022;-70
2023/07/11 01:57:15;;;;;;;13.27;6.45;;;23.00;99.90;;;;;;5028421;28;20038;-70
2023/07/11 01:59:41;;;;;;;21.67;6.03;;;22.90;99.90;;;;;;4997797;28;20483;-70
2023/07/11 02:02:08;;;;;;;18.15;5.80;;;22.90;99.90;;;;;;4999408;28;20031;-70
2023/07/11 02:04:35;;;;;;;14.70;6.13;;;22.90;99.90;;;;;;4999553;28;20490;-70
2023/07/11 02:07:02;;;;;;;21.23;6.45;;;22.80;99.90;;;;;;4997844;28;20026;-70
2023/07/11 02:09:28;;;;;;;17.63;6.40;;;22.80;99.90;;;;;;4990754;28;20023;-70
2023/07/11 02:11:54;;;;;;;25.58;6.75;;;22.80;99.90;;;;;;4997554;28;20066;-70
2023/07/11 02:14:20;;;;;;;23.83;7.05;;;22.80;99.90;;;;;;4999048;28;20022;-70
2023/07/11 02:16:50;;;;;;;16.63;6.57;;;22.70;99.90;;;;;;4998974;28;20030;-70
2023/07/11 02:19:18;;;;;;;22.52;6.35;;;22.70;99.90;;;;;;4999300;28;20019;-70
2023/07/11 02:21:44;;;;;;;16.60;5.90;;;22.70;99.90;;;;;;4998819;28;20156;-70
2023/07/11 02:24:13;;;;;;;22.35;7.30;;;22.70;99.90;;;;;;4997749;28;20054;-70
2023/07/11 02:26:39;;;;;;;10.05;5.68;;;22.60;99.90;;;;;;4998489;28;20374;-70
2023/07/11 02:29:06;;;;;;;24.63;7.00;;;22.60;99.90;;;;;;4999088;28;20042;-70
2023/07/11 02:31:33;;;;;;;11.77;5.93;;;22.60;99.90;;;;;;4998889;28;20474;-70
2023/07/11 02:33:59;;;;;;;16.98;6.72;;;22.60;99.90;;;;;;4998912;28;20085;-70
2023/07/11 02:36:26;;;;;;;19.88;5.80;;;22.60;99.90;;;;;;4998773;28;20446;-70
2023/07/11 02:38:52;;;;;;;14.55;6.32;;;22.50;99.90;;;;;;4998878;28;20076;-70
2023/07/11 02:41:18;;;;;;;17.25;6.00;;;22.50;99.90;;;;;;4998385;28;20019;-70
2023/07/11 02:43:45;;;;;;;20.38;6.68;;;22.50;99.90;;;;;;4998689;28;20109;-70
2023/07/11 02:46:10;;;;;;;21.95;6.75;;;22.50;99.90;;;;;;4998626;28;20495;-70
2023/07/11 02:48:36;;;;;;;19.60;6.30;;;22.50;99.90;;;;;;4998620;28;20023;-70
2023/07/11 02:51:02;;;;;;;18.02;6.93;;;22.50;99.90;;;;;;5029954;28;20088;-70
2023/07/11 02:53:27;;;;;;;17.27;6.30;;;22.40;99.90;;;;;;4998394;28;20363;-70
2023/07/11 02:55:53;;;;;;;14.35;6.38;;;22.40;99.90;;;;;;4998226;28;20041;-70
2023/07/11 02:58:19;;;;;;;14.90;5.75;;;22.30;99.90;;;;;;4987465;28;20499;-70
2023/07/11 03:00:49;;;;;;;10.00;5.57;;;22.30;99.90;;;;;;4995903;28;20061;-70
2023/07/11 03:03:16;;;;;;;14.82;6.13;;;22.30;99.90;;;;;;4998281;28;20029;-70
2023/07/11 03:05:44;;;;;;;18.13;6.45;;;22.20;99.90;;;;;;4997656;28;20055;-70
2023/07/11 03:08:09;;;;;;;18.63;6.15;;;22.20;99.90;;;;;;4997959;28;20041;-70
2023/07/11 03:10:35;;;;;;;17.83;6.30;;;22.20;99.90;;;;;;5029336;28;20042;-70
2023/07/11 03:13:01;;;;;;;19.98;6.30;;;22.20;99.90;;;;;;5029481;28;20022;-70
2023/07/11 03:15:26;;;;;;;14.30;6.57;;;22.10;99.90;;;;;;4998112;28;20057;-70
2023/07/11 03:17:52;;;;;;;14.15;5.60;;;22.10;99.90;;;;;;4998001;28;20053;-70
2023/07/11 03:20:17;;;;;;;17.58;6.72;;;22.00;99.90;;;;;;4997788;28;20113;-70
2023/07/11 03:22:49;;;;;;;13.65;5.97;;;22.00;99.90;;;;;;4997947;28;20023;-70
2023/07/11 03:25:15;;;;;;;17.05;6.25;;;22.00;99.90;;;;;;4997353;28;20026;-70
2023/07/11 03:27:40;;;;;;;17.38;6.70;;;22.00;99.90;;;;;;4997764;28;20022;-70
2023/07/11 03:30:07;;;;;;;14.00;5.57;;;22.00;99.90;;;;;;4997869;28;20034;-70
2023/07/11 03:32:32;;;;;;;10.50;5.88;;;21.90;99.90;;;;;;4997598;28;20032;-70
2023/07/11 03:34:58;;;;;;;18.70;6.53;;;21.90;99.90;;;;;;4997738;28;20109;-70
2023/07/11 03:37:24;;;;;;;12.15;6.80;;;21.90;99.90;;;;;;4997587;28;20022;-70
2023/07/11 03:39:50;;;;;;;19.45;7.15;;;21.80;99.90;;;;;;4997662;28;20023;-70
2023/07/11 03:42:15;;;;;;;14.48;6.00;;;21.80;99.90;;;;;;4997275;28;20040;-70
2023/07/11 03:44:44;;;;;;;16.17;5.75;;;21.80;99.90;;;;;;4997575;28;20030;-70
2023/07/11 03:47:09;;;;;;;13.48;6.28;;;21.80;99.90;;;;;;4996152;28;20022;-70
2023/07/11 03:49:35;;;;;;;16.52;6.55;;;21.80;99.90;;;;;;4997528;28;20026;-70
2023/07/11 03:52:01;;;;;;;18.50;6.32;;;21.70;99.90;;;;;;4997355;28;20046;-70
2023/07/11 03:54:27;;;;;;;14.90;6.35;;;21.70;99.90;;;;;;4997413;28;20018;-70
2023/07/11 03:56:53;;;;;;;19.48;6.32;;;21.70;99.90;;;;;;4996831;28;20022;-70
2023/07/11 03:59:19;;;;;;;19.55;6.28;;;21.60;99.90;;;;;;4990053;28;20026;-70
2023/07/11 04:01:46;;;;;;;17.60;5.95;;;21.60;99.90;;;;;;4997148;28;20042;-70
2023/07/11 04:04:12;;;;;;;13.95;6.03;;;21.60;99.90;;;;;;4997119;28;20049;-70
2023/07/11 04:06:37;;;;;;;21.55;6.55;;;21.60;99.90;;;;;;4997203;28;20026;-70
2023/07/11 04:09:03;;;;;;;14.98;6.32;;;21.50;99.90;;;;;;4997116;28;20034;-70
2023/07/11 04:11:29;;;;;;;18.90;7.00;;;21.50;99.90;;;;;;4996624;28;20023;-70
2023/07/11 04:13:54;;;;;;;14.93;5.90;;;21.40;99.90;;;;;;4996942;28;20057;-70
2023/07/11 04:16:20;;;;;;;22.17;7.22;;;21.50;99.90;;;;;;4996920;28;20062;-70
2023/07/11 04:18:46;;;;;;;20.63;7.78;;;21.40;99.90;;;;;;4996853;28;20058;-70
2023/07/11 04:21:12;;;;;;;18.52;7.00;;;21.40;99.90;;;;;;4996813;28;20042;-70
2023/07/11 04:23:37;;;;;;;18.33;6.45;;;21.40;99.90;;;;;;4996813;28;20109;-70
2023/07/11 04:26:03;;;;;;;12.65;7.03;;;21.40;99.90;;;;;;4995156;28;20023;-70
2023/07/11 04:28:30;;;;;;;13.60;6.55;;;21.40;99.90;;;;;;4996809;28;20038;-70
2023/07/11 04:30:55;;;;;;;13.13;7.43;;;21.30;99.90;;;;;;4996748;28;20027;-70
2023/07/11 04:33:21;;;;;;;17.15;6.70;;;21.30;99.90;;;;;;4996795;28;20033;-70
2023/07/11 04:35:47;;;;;;;19.15;7.30;;;21.30;99.90;;;;;;4995956;28;20031;-70
2023/07/11 04:38:13;;;;;;;14.38;6.53;;;21.30;99.90;;;;;;4996673;28;20794;-71
2023/07/11 04:40:39;;;;;;;26.00;7.10;;;21.30;99.90;;;;;;4996121;28;20034;-70
2023/07/11 04:43:05;;;;;;;15.38;8.10;;;21.30;99.90;;;;;;4996542;28;20118;-69
2023/07/11 04:45:31;;;;;;;12.68;7.57;;;21.30;99.90;;;;;;4996863;28;20098;-69
2023/07/11 04:47:57;;;;;;;12.88;7.68;;;21.30;99.90;;;;;;4996656;28;20053;-69
2023/07/11 04:50:22;;;;;;;16.75;6.22;;;21.30;99.90;;;;;;4996461;28;20081;-69
2023/07/11 04:52:49;;;;;;;17.73;7.20;;;21.30;99.90;;;;;;4996540;28;20030;-70
2023/07/11 04:55:15;;;;;;;13.50;6.57;;;21.40;99.90;;;;;;4996119;28;20097;-69
2023/07/11 04:57:41;;;;;;;18.83;7.82;;;21.30;99.90;;;;;;5022222;28;20113;-69
2023/07/11 05:00:08;;;;;;;20.58;8.00;;;21.40;99.90;;;;;;4994256;28;20026;-69
2023/07/11 05:02:34;;;;;;;17.00;6.82;;;21.50;99.90;;;;;;5027971;28;20029;-69
2023/07/11 05:05:00;;;;;;;16.50;7.03;;;21.50;99.90;;;;;;4996319;28;20027;-69
2023/07/11 05:07:25;;;;;;;13.90;6.50;;;21.60;99.90;;;;;;4996407;28;20019;-69
2023/07/11 05:09:51;;;;;;;14.85;7.03;;;21.60;99.90;;;;;;4996184;28;20101;-69
2023/07/11 05:12:17;;;;;;;17.77;7.40;;;21.70;99.90;;;;;;4995902;28;20050;-69
2023/07/11 05:14:42;;;;;;;22.30;7.28;;;21.70;99.90;;;;;;4996086;28;20023;-70
2023/07/11 05:17:08;;;;;;;17.25;7.40;;;21.80;99.90;;;;;;4996206;28;20026;-70
2023/07/11 05:19:34;;;;;;;19.67;7.72;;;21.90;99.90;;;;;;4996141;28;20101;-70
2023/07/11 05:21:59;;;;;;;16.40;6.82;;;22.00;99.90;;;;;;4995957;28;20535;-70
2023/07/11 05:24:25;;;;;;;19.25;7.35;;;22.00;99.90;;;;;;4996100;28;20037;-69
2023/07/11 05:26:51;;;;;;;17.63;7.60;;;22.10;99.90;;;;;;4995767;28;20022;-70
2023/07/11 05:29:17;;;;;;;15.07;7.80;;;22.20;99.90;;;;;;4994749;28;20497;-70
2023/07/11 05:31:43;;;;;;;14.98;7.32;;;22.20;99.90;;;;;;4996316;28;20382;-70
2023/07/11 05:34:10;;;;;;;16.90;6.63;;;22.30;99.90;;;;;;4996250;28;20091;-70
2023/07/11 05:36:38;;;;;;;20.52;7.72;;;22.40;99.90;;;;;;5027627;28;20050;-70
2023/07/11 05:39:13;;;;;;;21.15;7.10;;;22.50;99.90;;;;;;5027457;28;20027;-70
2023/07/11 05:41:45;;;;;;;25.20;6.57;;;22.60;99.90;;;;;;4995661;28;20054;-70
2023/07/11 05:44:12;;;;;;;17.15;6.85;;;22.70;99.90;;;;;;4995937;28;20019;-70
2023/07/11 05:46:39;;;;;;;18.92;7.25;;;22.90;99.90;;;;;;4996895;28;20561;-70
2023/07/11 05:49:06;;;;;;;13.10;6.72;;;23.00;99.90;;;;;;4999556;28;20018;-70
2023/07/11 05:51:31;;;;;;;12.85;6.68;;;23.10;99.90;;;;;;4998588;28;20035;-70
2023/07/11 05:53:58;;;;;;;16.92;7.57;;;23.30;99.90;;;;;;4999616;28;20437;-70
2023/07/11 05:56:24;;;;;;;20.38;6.07;;;23.30;99.90;;;;;;4999305;28;20138;-70
2023/07/11 05:58:51;;;;;;;14.77;6.68;;;23.40;99.90;;;;;;4986432;28;20023;-70
2023/07/11 06:01:23;;;;;;;14.43;6.60;;;23.50;99.90;;;;;;4999559;28;20029;-70
2023/07/11 06:03:51;;;;;;;20.55;6.43;;;23.60;99.90;;;;;;5030875;28;20101;-69
2023/07/11 06:06:18;;;;;;;17.35;6.38;;;23.70;99.90;;;;;;4999335;28;20022;-70
2023/07/11 06:08:45;;;;;;;16.13;6.05;;;23.90;99.90;;;;;;4999265;28;20023;-70
2023/07/11 06:11:10;;;;;;;16.27;6.00;;;24.00;99.90;;;;;;4994949;28;20034;-69
2023/07/11 06:13:38;;;;;;;13.52;5.93;;;24.20;99.90;;;;;;5030725;28;20498;-69
2023/07/11 06:16:10;;;;;;;12.73;6.05;;;24.30;99.90;;;;;;4982872;28;20042;-70
2023/07/11 06:18:37;;;;;;;14.50;6.20;;;24.40;99.90;;;;;;4985606;28;20074;-70
2023/07/11 06:21:08;;;;;;;19.60;6.93;;;24.50;99.90;;;;;;4982440;28;20046;-70
2023/07/11 06:23:34;;;;;;;15.00;6.35;;;24.60;99.90;;;;;;5018262;28;20030;-70
2023/07/11 06:26:00;;;;;;;15.35;5.55;;;24.60;99.90;;;;;;4998874;28;20426;-70
2023/07/11 06:28:27;;;;;;;13.82;5.07;;;24.70;99.90;;;;;;4998991;28;20034;-70
2023/07/11 06:30:56;;;;;;;13.35;5.45;;;24.80;99.90;;;;;;4998956;28;20086;-70
2023/07/11 06:33:22;;;;;;;14.52;6.22;;;25.00;99.90;;;;;;5024726;28;20019;-70
2023/07/11 06:35:49;;;;;;;12.80;5.07;;;25.00;99.90;;;;;;4979837;28;20095;-70
2023/07/11 06:38:16;;;;;;;15.27;5.93;;;25.00;99.90;;;;;;4992321;28;20022;-70
2023/07/11 06:40:50;;;;;;;19.90;6.95;;;25.00;99.90;;;;;;4995687;28;20023;-70
2023/07/11 06:43:16;;;;;;;19.95;6.22;;;25.20;99.90;;;;;;4996455;28;20081;-70
2023/07/11 06:45:48;;;;;;;24.48;5.65;;;25.30;99.90;;;;;;4995868;28;20475;-70
2023/07/11 06:48:14;;;;;;;14.32;5.63;;;25.40;99.90;;;;;;4990780;28;20030;-70
2023/07/11 06:50:40;;;;;;;15.75;5.72;;;25.60;99.90;;;;;;4997610;28;20418;-70
2023/07/11 06:53:06;;;;;;;16.02;4.82;;;25.70;99.90;;;;;;4997549;28;20034;-70
2023/07/11 06:55:31;;;;;;;15.43;5.00;;;25.70;99.90;;;;;;5025459;28;20034;-70
2023/07/11 06:57:57;;;;;;;19.67;6.18;;;25.70;99.90;;;;;;4991562;28;20027;-70
2023/07/11 07:00:24;;;;;;;17.70;5.53;;;25.80;99.90;;;;;;4996569;28;20113;-71
2023/07/11 07:02:50;;;;;;;16.40;5.93;;;25.90;99.90;;;;;;4997484;28;20034;-70
2023/07/11 07:05:15;;;;;;;16.67;5.03;;;25.90;99.90;;;;;;4997269;28;20022;-70
2023/07/11 07:07:41;;;;;;;10.32;5.43;;;25.90;99.90;;;;;;4997197;28;20057;-71
2023/07/11 07:10:07;;;;;;;23.75;6.22;;;26.10;99.90;;;;;;4993402;28;20702;-71
2023/07/11 07:12:33;;;;;;;15.02;5.75;;;26.10;99.90;;;;;;4995883;28;20030;-71
2023/07/11 07:14:58;;;;;;;23.08;6.78;;;26.10;99.90;;;;;;4997220;28;20061;-71
2023/07/11 07:17:24;;;;;;;14.15;4.90;;;26.30;99.90;;;;;;4996319;28;20042;-71
2023/07/11 07:19:50;;;;;;;19.15;4.93;;;26.30;99.90;;;;;;4996208;28;20037;-71
2023/07/11 07:22:16;;;;;;;20.27;5.68;;;26.40;99.90;;;;;;4994349;28;20031;-72
2023/07/11 07:24:41;;;;;;;18.50;5.57;;;26.40;99.90;;;;;;4996945;28;20026;-71
2023/07/11 07:27:09;;;;;;;16.40;5.60;;;26.40;99.90;;;;;;4995722;28;20199;-71
2023/07/11 07:29:35;;;;;;;14.30;6.00;;;26.40;99.90;;;;;;4995917;28;20054;-72
2023/07/11 07:32:00;;;;;;;23.15;5.85;;;26.40;99.90;;;;;;4996979;28;20033;-72
2023/07/11 07:34:26;;;;;;;19.33;5.78;;;26.50;99.90;;;;;;4996883;28;20033;-71
2023/07/11 07:36:52;;;;;;;16.73;4.88;;;26.70;99.90;;;;;;4995560;28;20045;-71
2023/07/11 07:39:17;;;;;;;20.80;6.88;;;26.70;99.90;;;;;;4994449;28;20026;-71
2023/07/11 07:41:43;;;;;;;28.77;6.47;;;26.80;99.90;;;;;;4995064;28;20018;-72
2023/07/11 07:44:09;;;;;;;13.75;5.93;;;26.90;99.90;;;;;;4994156;28;20359;-70
2023/07/11 07:46:34;;;;;;;20.52;5.82;;;27.10;99.90;;;;;;4993463;28;20027;-70
2023/07/11 07:49:00;;;;;;;20.88;5.43;;;27.00;99.90;;;;;;4994357;28;20061;-70
2023/07/11 07:51:26;;;;;;;27.33;6.40;;;26.80;99.90;;;;;;4991703;28;20038;-70
2023/07/11 07:53:51;;;;;;;17.55;5.70;;;26.90;99.90;;;;;;4993527;28;20380;-69
2023/07/11 07:56:20;;;;;;;26.98;7.80;;;27.00;99.90;;;;;;4996029;28;20049;-70
2023/07/11 07:58:47;;;;;;;22.92;5.95;;;27.20;99.90;;;;;;4993937;28;20039;-70
2023/07/11 08:01:15;;;;;;;26.42;6.45;;;27.30;99.90;;;;;;4996153;28;20026;-69
2023/07/11 08:03:41;;;;;;;23.25;6.32;;;27.50;99.90;;;;;;4996189;28;20026;-70
2023/07/11 08:06:08;;;;;;;27.70;6.82;;;27.50;99.90;;;;;;4995754;28;20076;-70
2023/07/11 08:08:34;;;;;;;23.05;6.30;;;27.50;99.90;;;;;;4996028;28;20402;-69
2023/07/11 08:11:02;;;;;;;25.40;6.93;;;27.50;99.90;;;;;;4995917;28;20026;-70
2023/07/11 08:13:28;;;;;;;30.67;7.55;;;27.60;99.90;;;;;;4994815;28;20514;-70
2023/07/11 08:15:54;;;;;;;19.20;5.80;;;27.60;99.90;;;;;;4995911;28;20026;-70
2023/07/11 08:18:20;;;;;;;23.92;5.53;;;27.50;99.90;;;;;;4994839;28;20046;-71
2023/07/11 08:20:45;;;;;;;26.73;6.15;;;27.60;99.90;;;;;;4995541;28;20089;-70
2023/07/11 08:23:11;;;;;;;26.05;6.13;;;27.50;99.90;;;;;;4996207;28;20018;-70
2023/07/11 08:25:37;;;;;;;32.03;7.45;;;27.60;99.90;;;;;;4994226;28;20549;-70
2023/07/11 08:28:05;;;;;;;29.50;6.75;;;27.70;99.90;;;;;;4994557;28;20030;-69
2023/07/11 08:30:39;;;;;;;20.42;6.05;;;27.70;99.90;;;;;;4995028;28;20089;-70
2023/07/11 08:33:05;;;;;;;27.48;6.80;;;27.80;99.90;;;;;;4995822;28;20030;-70
2023/07/11 08:35:31;;;;;;;22.88;5.90;;;27.90;99.90;;;;;;4995735;28;20406;-69
2023/07/11 08:37:56;;;;;;;28.67;5.97;;;27.90;99.90;;;;;;4994500;28;20049;-70
2023/07/11 08:40:29;;;;;;;26.98;5.72;;;27.90;99.90;;;;;;4993220;28;20036;-69
2023/07/11 08:42:55;;;;;;;26.67;6.07;;;27.80;99.90;;;;;;4994461;28;20045;-71
2023/07/11 08:45:42;;;;;;;27.83;6.20;;;27.80;99.90;;;;;;4995542;28;20019;-70
2023/07/11 08:48:13;;;;;;;24.40;7.38;;;28.00;99.90;;;;;;4994036;28;20388;-69
2023/07/11 08:50:55;;;;;;;29.42;6.82;;;28.20;99.90;;;;;;4994880;28;20029;-70
2023/07/11 08:53:31;;;;;;;25.40;6.20;;;28.40;99.90;;;;;;4995626;28;20030;-70
2023/07/11 08:56:03;;;;;;;20.85;6.75;;;28.50;99.90;;;;;;4995486;28;20125;-70
2023/07/11 08:58:33;;;;;;;27.00;7.22;;;28.50;99.90;;;;;;4994041;28;20077;-71
2023/07/11 09:01:02;;;;;;;29.38;6.90;;;28.60;99.90;;;;;;4995574;28;20023;-71
2023/07/11 09:03:34;;;;;;;25.30;7.05;;;28.70;99.90;;;;;;4995236;28;20118;-71
2023/07/11 09:06:22;;;;;;;27.48;6.10;;;28.80;99.90;;;;;;4995687;28;20018;-71
2023/07/11 09:08:54;;;;;;;26.00;7.03;;;28.70;99.90;;;;;;4992949;28;20058;-70
2023/07/11 09:11:53;;;;;;;41.38;8.27;;;28.60;99.90;;;;;;5023192;28;20026;-72
2023/07/11 09:14:54;;;;;;;27.00;6.10;;;28.70;99.90;;;;;;4993969;28;20037;-71
2023/07/11 09:18:04;;;;;;;18.27;6.85;;;28.90;99.90;;;;;;4987094;28;20109;-71
2023/07/11 09:20:46;;;;;;;23.08;6.82;;;29.00;99.90;;;;;;4993438;28;20047;-72
2023/07/11 09:23:39;;;;;;;24.48;7.82;;;29.00;99.90;;;;;;4996570;28;20021;-72
2023/07/11 09:26:11;;;;;;;27.23;8.02;;;29.00;99.90;;;;;;4998583;28;20018;-70
2023/07/11 09:28:38;;;;;;;28.85;7.43;;;29.10;99.90;;;;;;4998507;28;20054;-72
2023/07/11 09:31:08;;;;;;;18.73;6.35;;;29.10;99.90;;;;;;5030653;28;20034;-73
2023/07/11 09:33:38;;;;;;;24.45;7.18;;;29.10;99.90;;;;;;4995809;28;20037;-70
2023/07/11 09:36:23;;;;;;;26.05;7.30;;;29.10;99.90;;;;;;4996520;28;20064;-69
2023/07/11 09:38:58;;;;;;;38.95;8.25;;;29.30;99.90;;;;;;4993679;28;20086;-69
2023/07/11 09:41:39;;;;;;;27.38;7.32;;;29.10;99.90;;;;;;4998455;28;20418;-71
2023/07/11 09:44:09;;;;;;;25.10;8.05;;;29.10;99.90;;;;;;4995427;28;20014;-71
2023/07/11 09:46:35;;;;;;;20.35;7.00;;;29.10;99.90;;;;;;4996006;28;20034;-72
2023/07/11 09:49:03;;;;;;;26.35;7.88;;;29.30;99.90;;;;;;4997925;28;20037;-72
2023/07/11 09:51:36;;;;;;;23.30;7.47;;;29.50;99.90;;;;;;4994800;28;20027;-71
2023/07/11 09:54:15;;;;;;;27.00;7.82;;;29.50;99.90;;;;;;4996850;28;20394;-71
2023/07/11 09:56:46;;;;;;;23.33;7.28;;;29.60;99.90;;;;;;4998113;28;20469;-71
2023/07/11 09:59:13;;;;;;;29.27;7.30;;;29.70;99.90;;;;;;4996860;28;20014;-71
2023/07/11 10:01:39;;;;;;;27.23;7.43;;;29.10;99.90;;;;;;4998538;28;20065;-72
2023/07/11 10:04:10;;;;;;;35.47;7.97;;;28.80;99.90;;;;;;4997136;28;20069;-72
2023/07/11 10:06:39;;;;;;;28.45;7.55;;;29.00;99.90;;;;;;4993716;28;20026;-71
2023/07/11 10:09:29;;;;;;;26.50;6.82;;;29.20;99.90;;;;;;4997557;28;20018;-71
2023/07/11 10:12:04;;;;;;;28.40;8.20;;;29.30;99.90;;;;;;4997103;28;20053;-71
2023/07/11 10:14:31;;;;;;;29.90;6.40;;;29.40;99.90;;;;;;4995828;28;20022;-71
2023/07/11 10:16:58;;;;;;;28.77;8.05;;;29.50;99.90;;;;;;4997016;28;20030;-70
2023/07/11 10:19:26;;;;;;;20.35;6.65;;;29.50;99.90;;;;;;4997949;28;20026;-71
2023/07/11 10:21:52;;;;;;;29.75;6.97;;;29.70;99.90;;;;;;4996387;28;20049;-70
2023/07/11 10:24:21;;;;;;;28.40;7.90;;;29.60;99.90;;;;;;4998031;28;20022;-71
2023/07/11 10:26:49;;;;;;;31.13;7.13;;;29.70;99.90;;;;;;4993549;28;20125;-70
2023/07/11 10:29:19;;;;;;;23.40;8.13;;;29.50;99.90;;;;;;4995803;28;20509;-70
2023/07/11 10:31:56;;;;;;;28.05;8.02;;;29.40;99.90;;;;;;4997994;28;20034;-71
2023/07/11 10:34:27;;;;;;;23.58;7.20;;;29.50;99.90;;;;;;4995388;28;20034;-71
2023/07/11 10:37:04;;;;;;;31.67;8.00;;;29.70;99.90;;;;;;4996005;28;20030;-71
2023/07/11 10:39:47;;;;;;;19.35;7.68;;;29.60;99.90;;;;;;4995101;28;20036;-71
2023/07/11 10:42:42;;;;;;;23.50;6.63;;;29.70;99.90;;;;;;4995203;28;20049;-71
2023/07/11 10:45:17;;;;;;;30.27;7.97;;;29.90;99.90;;;;;;4995385;28;20050;-71
2023/07/11 10:48:11;;;;;;;25.23;6.25;;;29.70;99.90;;;;;;4997769;28;20054;-71
2023/07/11 10:51:01;;;;;;;24.58;7.93;;;29.80;99.90;;;;;;5012243;28;20031;-71
2023/07/11 10:53:59;;;;;;;25.98;6.97;;;29.90;99.90;;;;;;4997000;28;20022;-71
2023/07/11 10:56:30;;;;;;;34.15;7.50;;;30.10;99.90;;;;;;4996602;28;20121;-71
2023/07/11 10:58:57;;;;;;;20.75;7.00;;;30.10;99.90;;;;;;5026882;28;20037;-70
2023/07/11 11:01:42;;;;;;;22.88;6.72;;;30.30;99.90;;;;;;4997339;28;20625;-71
2023/07/11 11:04:38;;;;;;;25.65;7.53;;;30.30;99.90;;;;;;4996156;28;20050;-71
2023/07/11 11:07:09;;;;;;;28.83;8.05;;;30.30;99.90;;;;;;4993854;28;20049;-72
2023/07/11 11:10:12;;;;;;;31.52;7.57;;;30.40;99.90;;;;;;4990742;28;20069;-71
2023/07/11 11:12:43;;;;;;;25.25;8.30;;;30.20;99.90;;;;;;4993801;28;20034;-71
2023/07/11 11:15:35;;;;;;;28.88;7.28;;;30.30;99.90;;;;;;4992799;28;20033;-71
2023/07/11 11:18:09;;;;;;;17.33;6.90;;;30.50;99.90;;;;;;4994476;28;20113;-71
2023/07/11 11:21:08;;;;;;;24.27;8.10;;;30.50;99.90;;;;;;4990868;28;20043;-71
2023/07/11 11:23:43;;;;;;;25.65;8.40;;;30.70;99.90;;;;;;4996909;28;20376;-71
2023/07/11 11:26:37;;;;;;;27.48;8.93;;;30.50;99.90;;;;;;4988070;28;20022;-71
2023/07/11 11:29:21;;;;;;;18.63;7.55;;;30.20;99.90;;;;;;4994767;28;20046;-72
2023/07/11 11:32:09;;;;;;;27.77;7.07;;;30.40;99.90;;;;;;4996716;28;20022;-71
2023/07/11 11:34:36;;;;;;;23.50;7.32;;;30.70;99.90;;;;;;4994204;28;20521;-72
2023/07/11 11:37:30;;;;;;;22.17;7.38;;;30.90;99.90;;;;;;4996715;28;20023;-73
2023/07/11 11:40:16;;;;;;;28.75;8.00;;;31.00;99.90;;;;;;4993539;28;20026;-72
2023/07/11 11:42:44;;;;;;;18.92;7.07;;;31.00;99.90;;;;;;4993164;28;20515;-73
2023/07/11 11:45:15;;;;;;;16.83;6.30;;;30.80;99.90;;;;;;5024841;28;20550;-73
2023/07/11 11:47:42;;;;;;;18.88;6.57;;;30.70;99.90;;;;;;5025357;28;20516;-73
2023/07/11 11:50:18;;;;;;;20.35;7.65;;;30.70;99.90;;;;;;4991352;28;20034;-73
2023/07/11 11:52:46;;;;;;;25.05;6.63;;;31.00;99.90;;;;;;4993029;28;20498;-72
2023/07/11 11:55:36;;;;;;;25.67;7.07;;;31.20;99.90;;;;;;4991014;28;20097;-72
2023/07/11 11:58:02;;;;;;;20.27;6.32;;;31.70;99.90;;;;;;4985784;28;20038;-72
2023/07/11 12:00:44;;;;;;;22.88;7.50;;;32.00;99.90;;;;;;4993357;28;20538;-72
2023/07/11 12:03:34;;;;;;;31.48;8.25;;;32.50;99.90;;;;;;4994600;28;20018;-72
2023/07/11 12:06:25;;;;;;;19.77;7.45;;;32.60;99.90;;;;;;4994513;28;20019;-72
2023/07/11 12:09:31;;;;;;;28.92;6.80;;;32.70;99.90;;;;;;4995489;28;20081;-72
2023/07/11 12:12:10;;;;;;;23.98;6.97;;;32.40;99.90;;;;;;4991565;28;20034;-72
2023/07/11 12:14:52;;;;;;;23.70;6.95;;;32.20;99.90;;;;;;4996157;28;20502;-71
2023/07/11 12:17:33;;;;;;;24.65;6.25;;;31.90;99.90;;;;;;5027649;28;20486;-72
2023/07/11 12:20:05;;;;;;;21.98;6.95;;;31.80;99.90;;;;;;5024193;28;20584;-72
2023/07/11 12:22:37;;;;;;;21.77;6.80;;;31.60;99.90;;;;;;4988911;28;20059;-71
2023/07/11 12:25:14;;;;;;;22.80;7.22;;;31.90;99.90;;;;;;4993352;28;20018;-72
2023/07/11 12:28:00;;;;;;;24.83;7.43;;;32.10;99.90;;;;;;4995262;28;20064;-72
2023/07/11 12:30:38;;;;;;;18.45;6.25;;;32.30;99.90;;;;;;4990001;28;20085;-72
2023/07/11 12:33:32;;;;;;;22.83;6.95;;;32.40;99.90;;;;;;4991951;28;20030;-72
2023/07/11 12:36:13;;;;;;;30.23;7.05;;;32.40;99.90;;;;;;4992519;28;20023;-72
2023/07/11 12:38:55;;;;;;;24.38;7.50;;;32.70;99.90;;;;;;4988576;28;20035;-72
2023/07/11 12:41:48;;;;;;;28.33;8.52;;;32.80;99.90;;;;;;4992420;28;20117;-72
2023/07/11 12:44:15;;;;;;;28.67;7.10;;;32.70;99.90;;;;;;5026803;28;20022;-73
2023/07/11 12:46:45;;;;;;;22.80;7.13;;;32.60;99.90;;;;;;4995568;28;20018;-72
2023/07/11 12:49:28;;;;;;;25.00;7.18;;;32.80;99.90;;;;;;4990890;28;20031;-72
2023/07/11 12:52:11;;;;;;;24.77;6.40;;;33.20;99.90;;;;;;4995555;28;20078;-72
2023/07/11 12:54:37;;;;;;;21.08;7.28;;;33.60;99.90;;;;;;4996589;28;20085;-72